Home > Products > Valid Products > TAF

000
FTPQ31 PGUM 130539
TAFGUM
TAF
PGUM 130539Z 1306/1412 06022KT P6SM VCSH SCT025 SCT040 SCT050
     FM130800 07012KT P6SM VCSH SCT025 SCT040 SCT050
     FM132200 08018KT P6SM VCSH SCT025 SCT050=



000
FTPQ31 PGUM 130539
TAFGUM
TAF
PGUM 130539Z 1306/1412 06022KT P6SM VCSH SCT025 SCT040 SCT050
     FM130800 07012KT P6SM VCSH SCT025 SCT040 SCT050
     FM132200 08018KT P6SM VCSH SCT025 SCT050=



000
FTPQ31 PGUM 130539
TAFGUM
TAF
PGUM 130539Z 1306/1412 06022KT P6SM VCSH SCT025 SCT040 SCT050
     FM130800 07012KT P6SM VCSH SCT025 SCT040 SCT050
     FM132200 08018KT P6SM VCSH SCT025 SCT050=



000
FTPQ31 PGUM 122339
TAFGUM
TAF
PGUM 122339Z 1300/1406 06022KT P6SM VCSH SCT025 SCT040 SCT050
     FM130800 07012KT P6SM VCSH SCT025 SCT040 SCT050
     FM132200 08018KT P6SM VCSH SCT025 SCT050=



000
FTPQ31 PGUM 122339
TAFGUM
TAF
PGUM 122339Z 1300/1406 06022KT P6SM VCSH SCT025 SCT040 SCT050
     FM130800 07012KT P6SM VCSH SCT025 SCT040 SCT050
     FM132200 08018KT P6SM VCSH SCT025 SCT050=



000
FTPQ31 PGUM 122339
TAFGUM
TAF
PGUM 122339Z 1300/1406 06022KT P6SM VCSH SCT025 SCT040 SCT050
     FM130800 07012KT P6SM VCSH SCT025 SCT040 SCT050
     FM132200 08018KT P6SM VCSH SCT025 SCT050=



000
FTPQ31 PGUM 121727
TAFGUM
TAF
PGUM 121727Z 1218/1324 05012G25KT P6SM VCSH FEW025 SCT060=



000
FTPQ31 PGUM 121131
TAFGUM
TAF
PGUM 121131Z 1212/1318 05012G25KT P6SM VCSH SCT025 SCT060=



000
FTPQ31 PGUM 121131
TAFGUM
TAF
PGUM 121131Z 1212/1318 05012G25KT P6SM VCSH SCT025 SCT060=



000
FTPQ31 PGUM 121131
TAFGUM
TAF
PGUM 121131Z 1212/1318 05012G25KT P6SM VCSH SCT025 SCT060=



000
FTPQ31 PGUM 120528
TAFGUM
TAF
PGUM 120528Z 1206/1312 05020G30KT P6SM VCSH SCT020 BKN035
     FM120900 05012G20KT P6SM VCSH SCT018 SCT050=



000
FTPQ31 PGUM 120528
TAFGUM
TAF
PGUM 120528Z 1206/1312 05020G30KT P6SM VCSH SCT020 BKN035
     FM120900 05012G20KT P6SM VCSH SCT018 SCT050=



000
FTPQ31 PGUM 120528
TAFGUM
TAF
PGUM 120528Z 1206/1312 05020G30KT P6SM VCSH SCT020 BKN035
     FM120900 05012G20KT P6SM VCSH SCT018 SCT050=



000
FTPQ31 PGUM 120422 AAA
TAFGUM
TAF AMD
PGUM 120422Z 1204/1306 05020G30KT P6SM VCSH SCT025 BKN120
     FM120900 05012G20KT P6SM VCSH SCT018 SCT050=



000
FTPQ31 PGUM 120422 AAA
TAFGUM
TAF AMD
PGUM 120422Z 1204/1306 05020G30KT P6SM VCSH SCT025 BKN120
     FM120900 05012G20KT P6SM VCSH SCT018 SCT050=



000
FTPQ31 PGUM 120422 AAA
TAFGUM
TAF AMD
PGUM 120422Z 1204/1306 05020G30KT P6SM VCSH SCT025 BKN120
     FM120900 05012G20KT P6SM VCSH SCT018 SCT050=



000
FTPQ31 PGUM 112335
TAFGUM
TAF
PGUM 112335Z 1200/1306 05018G28KT P6SM VCSH FEW020 SCT040 BKN120
     FM120900 05012G20KT P6SM VCSH SCT018 SCT050=



000
FTPQ31 PGUM 112335
TAFGUM
TAF
PGUM 112335Z 1200/1306 05018G28KT P6SM VCSH FEW020 SCT040 BKN120
     FM120900 05012G20KT P6SM VCSH SCT018 SCT050=



000
FTPQ31 PGUM 112335
TAFGUM
TAF
PGUM 112335Z 1200/1306 05018G28KT P6SM VCSH FEW020 SCT040 BKN120
     FM120900 05012G20KT P6SM VCSH SCT018 SCT050=



000
FTPQ31 PGUM 111727
TAFGUM
TAF
PGUM 111727Z 1118/1224 05017KT P6SM VCSH FEW020 SCT040 BKN080
      WS020/06035KT
      TEMPO 1118/1122 -SHRA SCT016 BKN030
     FM112300 05018G28KT P6SM VCSH FEW020 SCT040 BKN080=



000
FTPQ31 PGUM 111727
TAFGUM
TAF
PGUM 111727Z 1118/1224 05017KT P6SM VCSH FEW020 SCT040 BKN080
      WS020/06035KT
      TEMPO 1118/1122 -SHRA SCT016 BKN030
     FM112300 05018G28KT P6SM VCSH FEW020 SCT040 BKN080=



000
FTPQ31 PGUM 111727
TAFGUM
TAF
PGUM 111727Z 1118/1224 05017KT P6SM VCSH FEW020 SCT040 BKN080
      WS020/06035KT
      TEMPO 1118/1122 -SHRA SCT016 BKN030
     FM112300 05018G28KT P6SM VCSH FEW020 SCT040 BKN080=



000
FTPQ31 PGUM 111120
TAFGUM
TAF
PGUM 111120Z 1112/1218 06012KT P6SM VCSH SCT017 BKN080
      WS020/06030KT
     FM112200 06016G26KT P6SM VCSH SCT020 SCT040 BKN050=



000
FTPQ31 PGUM 110522
TAFGUM
TAF
PGUM 110522Z 1106/1212 05016G25KT P6SM VCSH SCT020 SCT040 BKN050
     FM110900 06011KT P6SM VCSH SCT020 SCT040 BKN050
     FM112200 06016G26KT P6SM VCSH SCT020 SCT040 BKN050=



000
FTPQ31 PGUM 110522
TAFGUM
TAF
PGUM 110522Z 1106/1212 05016G25KT P6SM VCSH SCT020 SCT040 BKN050
     FM110900 06011KT P6SM VCSH SCT020 SCT040 BKN050
     FM112200 06016G26KT P6SM VCSH SCT020 SCT040 BKN050=



000
FTPQ31 PGUM 110522
TAFGUM
TAF
PGUM 110522Z 1106/1212 05016G25KT P6SM VCSH SCT020 SCT040 BKN050
     FM110900 06011KT P6SM VCSH SCT020 SCT040 BKN050
     FM112200 06016G26KT P6SM VCSH SCT020 SCT040 BKN050=



000
FTPQ31 PGUM 102340
TAFGUM
TAF
PGUM 102340Z 1100/1206 05018KT P6SM VCSH SCT025 SCT040 BKN060
     FM110900 06011KT P6SM VCSH SCT020 SCT040 BKN060
     FM112200 06016G26KT P6SM VCSH SCT020 SCT040 BKN060=



000
FTPQ31 PGUM 102340
TAFGUM
TAF
PGUM 102340Z 1100/1206 05018KT P6SM VCSH SCT025 SCT040 BKN060
     FM110900 06011KT P6SM VCSH SCT020 SCT040 BKN060
     FM112200 06016G26KT P6SM VCSH SCT020 SCT040 BKN060=



000
FTPQ31 PGUM 102340
TAFGUM
TAF
PGUM 102340Z 1100/1206 05018KT P6SM VCSH SCT025 SCT040 BKN060
     FM110900 06011KT P6SM VCSH SCT020 SCT040 BKN060
     FM112200 06016G26KT P6SM VCSH SCT020 SCT040 BKN060=



000
FTPQ31 PGUM 101736
TAFGUM
TAF
PGUM 101736Z 1018/1124 04011KT P6SM VCSH FEW020 SCT040 BKN100
      TEMPO 1018/1022 -SHRA SCT016 BKN030
     FM110200 05012G22KT P6SM VCSH FEW020 SCT040 BKN100=



000
FTPQ31 PGUM 101340 AAJ
TAFGUM
TAF AMD
PGUM 101340Z 1014/1118 04015KT P6SM VCSH FEW020 SCT040 BKN100
      TEMPO 1016/1020 -SHRA SCT016 BKN030
     FM110900 07009KT P6SM VCSH SCT020 SCT040=



000
FTPQ31 PGUM 101340 AAJ
TAFGUM
TAF AMD
PGUM 101340Z 1014/1118 04015KT P6SM VCSH FEW020 SCT040 BKN100
      TEMPO 1016/1020 -SHRA SCT016 BKN030
     FM110900 07009KT P6SM VCSH SCT020 SCT040=



000
FTPQ31 PGUM 101340 AAJ
TAFGUM
TAF AMD
PGUM 101340Z 1014/1118 04015KT P6SM VCSH FEW020 SCT040 BKN100
      TEMPO 1016/1020 -SHRA SCT016 BKN030
     FM110900 07009KT P6SM VCSH SCT020 SCT040=



000
FTPQ31 PGUM 101127
TAFGUM
TAF
PGUM 101127Z 1012/1118 05011KT P6SM VCSH FEW020 SCT040
     FM102200 06016KT P6SM VCSH SCT020 SCT040
     FM110900 05009KT P6SM VCSH SCT020 SCT040=



000
FTPQ31 PGUM 101127
TAFGUM
TAF
PGUM 101127Z 1012/1118 05011KT P6SM VCSH FEW020 SCT040
     FM102200 06016KT P6SM VCSH SCT020 SCT040
     FM110900 05009KT P6SM VCSH SCT020 SCT040=



000
FTPQ31 PGUM 101127
TAFGUM
TAF
PGUM 101127Z 1012/1118 05011KT P6SM VCSH FEW020 SCT040
     FM102200 06016KT P6SM VCSH SCT020 SCT040
     FM110900 05009KT P6SM VCSH SCT020 SCT040=



    US Dept of Commerce
    National Oceanic and Atmospheric Administration
    National Weather Service
    1325 East West Highway
    Silver Spring, MD 20910
    Page Author: NWS Internet Services Team
Disclaimer
Information Quality
Credits
Glossary
Privacy Policy
Freedom of Information Act (FOIA)
About Us
Career Opportunities